JAL59 RJTT-EGKK
Flight info
| Callsign | JAL59 |
|---|---|
| Flight time | N/A |
| Altitude | 33000 |
| Route | RUTAS POROT A590 PUGAL/N0499F340 A590 POWAL/N0503F330 DCT OPAKE DCT NATES/N0500F350 R338 MARCC DCT JUJXI DCT OMEKA/N0503F370 DCT 81N120W 82N100W 82N080W 82N060W/M086F370 80N040W 74N020W/M086F390 65N010W DCT MATIK/N0503F390 DCT BESGA DCT ELBUS UL612 LAKEY DCT NUGRA DCT DISIT |
| Aircraft | B748/H-SDE3FGHIM1M2RWXY/LB1 |
Departure
| Time | N/A |
|---|---|
| Airport | Tokyo Haneda International Airport (RJTT) |
Arrival
| Time | 2026-05-07 19:51 |
|---|---|
| Airport | London Gatwick Airport (EGKK) |
| Time | Latitude | Longitude | Altitude | Speed | Heading |
|---|---|---|---|---|---|
| 2026-05-07 18:21 | 58.93824 | -7.96070 | 39307 ft | 474 kts | 175° |
| 2026-05-07 18:21 | 58.90555 | -7.95142 | 38821 ft | 473 kts | 175° |
| 2026-05-07 18:21 | 58.87322 | -7.93970 | 38398 ft | 474 kts | 167° |
| 2026-05-07 18:22 | 58.84194 | -7.91919 | 37897 ft | 474 kts | 162° |
| 2026-05-07 18:22 | 58.83201 | -7.91139 | 37741 ft | 474 kts | 161° |
| 2026-05-07 18:22 | 58.79310 | -7.87732 | 37163 ft | 470 kts | 158° |
| 2026-05-07 18:22 | 58.76392 | -7.84949 | 36741 ft | 466 kts | 158° |
| 2026-05-07 18:23 | 58.72607 | -7.81179 | 36254 ft | 459 kts | 157° |
| 2026-05-07 18:23 | 58.69804 | -7.78312 | 35888 ft | 454 kts | 157° |
| 2026-05-07 18:23 | 58.67934 | -7.76369 | 35635 ft | 451 kts | 155° |
| 2026-05-07 18:23 | 58.64443 | -7.72078 | 35189 ft | 448 kts | 151° |
| 2026-05-07 18:24 | 58.62741 | -7.69699 | 34942 ft | 446 kts | 150° |
| 2026-05-07 18:24 | 58.60292 | -7.66094 | 34602 ft | 442 kts | 149° |
| 2026-05-07 18:24 | 58.57904 | -7.62445 | 34264 ft | 437 kts | 148° |
| 2026-05-07 18:24 | 58.55558 | -7.58772 | 33933 ft | 433 kts | 148° |
| 2026-05-07 18:25 | 58.53259 | -7.55106 | 33589 ft | 428 kts | 148° |
| 2026-05-07 18:25 | 58.51023 | -7.51492 | 33070 ft | 426 kts | 148° |
| 2026-05-07 18:25 | 58.48764 | -7.47835 | 32559 ft | 424 kts | 148° |
| 2026-05-07 18:26 | 58.44251 | -7.40602 | 32572 ft | 429 kts | 148° |
| 2026-05-07 18:26 | 58.39586 | -7.33237 | 32561 ft | 437 kts | 148° |
| 2026-05-07 18:27 | 58.34885 | -7.25860 | 32577 ft | 438 kts | 148° |
| 2026-05-07 18:27 | 58.30173 | -7.18488 | 32579 ft | 439 kts | 148° |
| 2026-05-07 18:28 | 58.25448 | -7.11138 | 32569 ft | 440 kts | 148° |
| 2026-05-07 18:28 | 58.20684 | -7.03855 | 32593 ft | 439 kts | 148° |
| 2026-05-07 18:29 | 58.15913 | -6.96621 | 32606 ft | 439 kts | 148° |
| 2026-05-07 18:29 | 58.11139 | -6.89408 | 32577 ft | 439 kts | 148° |
| 2026-05-07 18:30 | 58.06368 | -6.82217 | 32625 ft | 438 kts | 148° |
| 2026-05-07 18:30 | 58.01588 | -6.75037 | 32587 ft | 439 kts | 148° |
| 2026-05-07 18:31 | 57.96805 | -6.67945 | 32614 ft | 440 kts | 148° |
| 2026-05-07 18:31 | 57.91969 | -6.60846 | 32613 ft | 440 kts | 148° |
| 2026-05-07 18:32 | 57.87129 | -6.53776 | 32619 ft | 444 kts | 148° |
| 2026-05-07 18:32 | 57.82162 | -6.46578 | 32646 ft | 453 kts | 148° |
| 2026-05-07 18:33 | 57.77158 | -6.39360 | 32642 ft | 454 kts | 148° |
| 2026-05-07 18:33 | 57.72136 | -6.32175 | 32644 ft | 455 kts | 148° |
| 2026-05-07 18:34 | 57.67116 | -6.25067 | 32644 ft | 455 kts | 149° |
| 2026-05-07 18:34 | 57.62057 | -6.17938 | 32653 ft | 455 kts | 149° |
| 2026-05-07 18:35 | 57.57012 | -6.10855 | 32659 ft | 455 kts | 149° |
| 2026-05-07 18:35 | 57.51931 | -6.03743 | 32669 ft | 455 kts | 149° |
| 2026-05-07 18:36 | 57.46848 | -5.96696 | 32819 ft | 457 kts | 149° |
| 2026-05-07 18:36 | 57.41668 | -5.89985 | 32822 ft | 452 kts | 151° |
| 2026-05-07 18:37 | 57.36454 | -5.83605 | 32821 ft | 451 kts | 152° |
| 2026-05-07 18:37 | 57.31190 | -5.77258 | 32829 ft | 451 kts | 152° |
| 2026-05-07 18:38 | 57.25919 | -5.70938 | 32836 ft | 451 kts | 152° |
| 2026-05-07 18:38 | 57.20629 | -5.64642 | 32851 ft | 452 kts | 152° |
| 2026-05-07 18:39 | 57.15327 | -5.58392 | 32857 ft | 452 kts | 152° |
| 2026-05-07 18:39 | 57.10051 | -5.52204 | 32864 ft | 452 kts | 152° |
| 2026-05-07 18:40 | 57.04735 | -5.45993 | 32868 ft | 454 kts | 152° |
| 2026-05-07 18:40 | 56.99410 | -5.39800 | 32851 ft | 453 kts | 152° |
| 2026-05-07 18:41 | 56.94072 | -5.33633 | 32872 ft | 453 kts | 152° |
| 2026-05-07 18:41 | 56.88720 | -5.27491 | 32839 ft | 453 kts | 152° |
| 2026-05-07 18:42 | 56.83403 | -5.21397 | 32880 ft | 450 kts | 152° |
| 2026-05-07 18:42 | 56.78095 | -5.15321 | 32878 ft | 450 kts | 152° |
| 2026-05-07 18:43 | 56.72788 | -5.09262 | 32883 ft | 450 kts | 152° |
| 2026-05-07 18:43 | 56.67488 | -5.03272 | 32888 ft | 451 kts | 152° |
| 2026-05-07 18:44 | 56.62146 | -4.97277 | 32901 ft | 451 kts | 152° |
| 2026-05-07 18:44 | 56.56795 | -4.91373 | 32895 ft | 449 kts | 154° |
| 2026-05-07 18:45 | 56.51338 | -4.85840 | 32905 ft | 448 kts | 155° |
| 2026-05-07 18:45 | 56.45841 | -4.80439 | 32906 ft | 450 kts | 155° |
| 2026-05-07 18:46 | 56.40357 | -4.75133 | 32913 ft | 450 kts | 155° |
| 2026-05-07 18:46 | 56.34829 | -4.69820 | 32917 ft | 450 kts | 155° |
| 2026-05-07 18:47 | 56.29297 | -4.64521 | 32921 ft | 450 kts | 155° |
| 2026-05-07 18:47 | 56.23762 | -4.59233 | 32917 ft | 450 kts | 156° |
| 2026-05-07 18:48 | 56.18316 | -4.54214 | 32908 ft | 447 kts | 157° |
| 2026-05-07 18:48 | 56.12799 | -4.49414 | 32935 ft | 430 kts | 158° |
| 2026-05-07 18:49 | 56.07485 | -4.44933 | 32920 ft | 422 kts | 158° |
| 2026-05-07 18:49 | 56.02170 | -4.40574 | 32927 ft | 419 kts | 159° |
| 2026-05-07 18:50 | 55.96870 | -4.36258 | 32929 ft | 418 kts | 159° |
| 2026-05-07 18:50 | 55.91571 | -4.31955 | 32957 ft | 418 kts | 159° |
| 2026-05-07 18:51 | 55.86268 | -4.27665 | 32933 ft | 419 kts | 159° |
| 2026-05-07 18:51 | 55.80965 | -4.23384 | 32930 ft | 418 kts | 159° |
| 2026-05-07 18:52 | 55.75657 | -4.19113 | 32928 ft | 418 kts | 159° |
| 2026-05-07 18:52 | 55.70390 | -4.14883 | 32935 ft | 418 kts | 159° |
| 2026-05-07 18:53 | 55.65069 | -4.10654 | 32945 ft | 419 kts | 159° |
| 2026-05-07 18:53 | 55.59734 | -4.06439 | 32950 ft | 420 kts | 159° |
| 2026-05-07 18:54 | 55.54399 | -4.02250 | 32943 ft | 420 kts | 160° |
| 2026-05-07 18:54 | 55.48954 | -3.98592 | 32964 ft | 417 kts | 166° |
| 2026-05-07 18:55 | 55.43266 | -3.96772 | 32960 ft | 417 kts | 176° |
| 2026-05-07 18:55 | 55.37548 | -3.94764 | 32966 ft | 420 kts | 167° |
| 2026-05-07 18:56 | 55.32053 | -3.91206 | 32974 ft | 424 kts | 155° |
| 2026-05-07 18:56 | 55.27024 | -3.85887 | 32951 ft | 426 kts | 151° |
| 2026-05-07 18:57 | 55.21847 | -3.80919 | 32965 ft | 421 kts | 155° |
| 2026-05-07 18:57 | 55.16701 | -3.76041 | 32961 ft | 422 kts | 153° |
| 2026-05-07 18:58 | 55.11550 | -3.71085 | 32972 ft | 423 kts | 154° |
| 2026-05-07 18:58 | 55.06365 | -3.66185 | 32976 ft | 423 kts | 154° |
| 2026-05-07 18:59 | 55.01191 | -3.61261 | 32976 ft | 423 kts | 154° |
| 2026-05-07 18:59 | 54.96033 | -3.56397 | 32976 ft | 424 kts | 154° |
| 2026-05-07 19:00 | 54.90826 | -3.51492 | 32966 ft | 427 kts | 154° |
| 2026-05-07 19:00 | 54.85588 | -3.46575 | 32982 ft | 428 kts | 154° |
| 2026-05-07 19:01 | 54.80348 | -3.41670 | 32982 ft | 428 kts | 154° |
| 2026-05-07 19:01 | 54.75100 | -3.36773 | 32982 ft | 428 kts | 154° |
| 2026-05-07 19:02 | 54.69767 | -3.32229 | 32971 ft | 427 kts | 159° |
| 2026-05-07 19:02 | 54.64286 | -3.28123 | 32973 ft | 429 kts | 159° |
| 2026-05-07 19:03 | 54.58845 | -3.24037 | 32979 ft | 429 kts | 159° |
| 2026-05-07 19:03 | 54.53369 | -3.19949 | 32985 ft | 428 kts | 158° |
| 2026-05-07 19:04 | 54.47905 | -3.15876 | 32986 ft | 427 kts | 158° |
| 2026-05-07 19:04 | 54.42482 | -3.11849 | 32976 ft | 431 kts | 158° |
| 2026-05-07 19:05 | 54.37007 | -3.07791 | 33003 ft | 431 kts | 158° |
| 2026-05-07 19:05 | 54.31496 | -3.03722 | 32981 ft | 431 kts | 158° |
| 2026-05-07 19:06 | 54.25978 | -2.99658 | 32989 ft | 431 kts | 158° |
| 2026-05-07 19:06 | 54.20300 | -2.96046 | 33010 ft | 443 kts | 163° |
| 2026-05-07 19:06 | 54.17346 | -2.94355 | 33010 ft | 451 kts | 163° |
| 2026-05-07 19:07 | 54.11299 | -2.90876 | 33019 ft | 465 kts | 163° |
| 2026-05-07 19:07 | 54.05114 | -2.87332 | 33007 ft | 470 kts | 163° |
| 2026-05-07 19:08 | 53.98902 | -2.83785 | 33011 ft | 471 kts | 163° |
| 2026-05-07 19:08 | 53.92663 | -2.80234 | 33009 ft | 476 kts | 163° |
| 2026-05-07 19:09 | 53.86424 | -2.76693 | 33009 ft | 475 kts | 163° |
| 2026-05-07 19:09 | 53.80145 | -2.73142 | 33009 ft | 475 kts | 163° |
| 2026-05-07 19:10 | 53.74926 | -2.70198 | 33019 ft | 475 kts | 163° |
| 2026-05-07 19:10 | 53.68637 | -2.66661 | 33012 ft | 480 kts | 163° |
| 2026-05-07 19:11 | 53.62306 | -2.63111 | 33011 ft | 478 kts | 163° |
| 2026-05-07 19:11 | 53.54970 | -2.59013 | 33009 ft | 478 kts | 163° |
| 2026-05-07 19:12 | 53.49687 | -2.56066 | 33002 ft | 476 kts | 163° |
| 2026-05-07 19:12 | 53.43390 | -2.52576 | 33010 ft | 476 kts | 163° |
| 2026-05-07 19:13 | 53.37135 | -2.49110 | 33010 ft | 477 kts | 163° |
| 2026-05-07 19:13 | 53.30831 | -2.45632 | 33014 ft | 477 kts | 163° |
| 2026-05-07 19:14 | 53.24526 | -2.42162 | 33012 ft | 477 kts | 163° |
| 2026-05-07 19:14 | 53.18211 | -2.38699 | 33016 ft | 480 kts | 163° |
| 2026-05-07 19:15 | 53.11863 | -2.35228 | 33017 ft | 480 kts | 163° |
| 2026-05-07 19:15 | 53.05524 | -2.31772 | 33014 ft | 480 kts | 163° |
| 2026-05-07 19:16 | 52.99253 | -2.27928 | 33027 ft | 481 kts | 160° |
| 2026-05-07 19:16 | 52.93013 | -2.23905 | 33018 ft | 484 kts | 161° |
| 2026-05-07 19:17 | 52.86747 | -2.19808 | 33021 ft | 484 kts | 161° |
| 2026-05-07 19:17 | 52.80476 | -2.15759 | 33020 ft | 484 kts | 161° |
| 2026-05-07 19:18 | 52.74227 | -2.11715 | 32642 ft | 477 kts | 161° |
| 2026-05-07 19:18 | 52.71163 | -2.09738 | 32465 ft | 467 kts | 161° |
| 2026-05-07 19:18 | 52.68173 | -2.07817 | 32302 ft | 456 kts | 161° |
| 2026-05-07 19:19 | 52.65252 | -2.05943 | 32023 ft | 448 kts | 161° |
| 2026-05-07 19:19 | 52.62348 | -2.04080 | 31665 ft | 442 kts | 161° |
| 2026-05-07 19:19 | 52.59504 | -2.02258 | 31286 ft | 437 kts | 161° |
| 2026-05-07 19:19 | 52.56673 | -2.00447 | 30895 ft | 433 kts | 161° |
| 2026-05-07 19:20 | 52.53875 | -1.98660 | 30475 ft | 430 kts | 161° |
| 2026-05-07 19:20 | 52.51091 | -1.96885 | 30026 ft | 428 kts | 161° |
| 2026-05-07 19:20 | 52.48322 | -1.95120 | 29512 ft | 425 kts | 161° |
| 2026-05-07 19:20 | 52.45572 | -1.93370 | 29022 ft | 422 kts | 161° |
| 2026-05-07 19:21 | 52.42876 | -1.91657 | 28561 ft | 419 kts | 161° |
| 2026-05-07 19:21 | 52.40164 | -1.89937 | 28108 ft | 416 kts | 161° |
| 2026-05-07 19:21 | 52.37468 | -1.88228 | 27662 ft | 413 kts | 161° |
| 2026-05-07 19:21 | 52.34792 | -1.86535 | 27225 ft | 410 kts | 161° |
| 2026-05-07 19:22 | 52.32135 | -1.84855 | 26800 ft | 407 kts | 161° |
| 2026-05-07 19:22 | 52.29505 | -1.83195 | 26374 ft | 405 kts | 161° |
| 2026-05-07 19:22 | 52.26882 | -1.81541 | 25938 ft | 402 kts | 161° |
| 2026-05-07 19:22 | 52.24284 | -1.79905 | 25551 ft | 398 kts | 161° |
| 2026-05-07 19:23 | 52.21729 | -1.78300 | 24964 ft | 401 kts | 161° |
| 2026-05-07 19:23 | 52.19109 | -1.76656 | 24388 ft | 403 kts | 161° |
| 2026-05-07 19:23 | 52.16485 | -1.75009 | 23807 ft | 405 kts | 161° |
| 2026-05-07 19:23 | 52.13849 | -1.73356 | 23159 ft | 406 kts | 161° |
| 2026-05-07 19:24 | 52.11245 | -1.71726 | 22510 ft | 407 kts | 160° |
| 2026-05-07 19:24 | 52.08708 | -1.69633 | 21880 ft | 410 kts | 151° |
| 2026-05-07 19:24 | 52.06329 | -1.67067 | 21235 ft | 411 kts | 147° |
| 2026-05-07 19:24 | 52.04001 | -1.64373 | 20607 ft | 410 kts | 148° |
| 2026-05-07 19:25 | 52.01639 | -1.61856 | 20507 ft | 403 kts | 150° |
| 2026-05-07 19:25 | 51.99267 | -1.59439 | 20006 ft | 408 kts | 149° |
| 2026-05-07 19:25 | 51.96882 | -1.56941 | 19391 ft | 408 kts | 148° |
| 2026-05-07 19:25 | 51.94558 | -1.54440 | 18824 ft | 391 kts | 148° |
| 2026-05-07 19:26 | 51.92345 | -1.52082 | 18219 ft | 370 kts | 149° |
| 2026-05-07 19:26 | 51.90249 | -1.49889 | 17615 ft | 352 kts | 149° |
| 2026-05-07 19:26 | 51.88226 | -1.47773 | 17145 ft | 338 kts | 149° |
| 2026-05-07 19:26 | 51.86259 | -1.45702 | 16689 ft | 336 kts | 149° |
| 2026-05-07 19:27 | 51.84307 | -1.43647 | 16246 ft | 332 kts | 149° |
| 2026-05-07 19:27 | 51.82400 | -1.41646 | 15849 ft | 330 kts | 149° |
| 2026-05-07 19:27 | 51.80484 | -1.39639 | 15434 ft | 327 kts | 149° |
| 2026-05-07 19:27 | 51.78566 | -1.37631 | 15073 ft | 329 kts | 149° |
| 2026-05-07 19:28 | 51.76650 | -1.35625 | 15029 ft | 328 kts | 149° |
| 2026-05-07 19:28 | 51.74718 | -1.33606 | 15032 ft | 331 kts | 149° |
| 2026-05-07 19:28 | 51.72785 | -1.31587 | 15033 ft | 331 kts | 149° |
| 2026-05-07 19:28 | 51.70853 | -1.29570 | 15030 ft | 331 kts | 149° |
| 2026-05-07 19:29 | 51.68920 | -1.27553 | 15055 ft | 328 kts | 149° |
| 2026-05-07 19:29 | 51.66994 | -1.25546 | 15056 ft | 333 kts | 149° |
| 2026-05-07 19:29 | 51.65035 | -1.23508 | 15059 ft | 335 kts | 149° |
| 2026-05-07 19:29 | 51.63068 | -1.21464 | 15060 ft | 337 kts | 149° |
| 2026-05-07 19:30 | 51.61103 | -1.19424 | 15055 ft | 337 kts | 149° |
| 2026-05-07 19:30 | 51.59136 | -1.17382 | 15058 ft | 337 kts | 149° |
| 2026-05-07 19:30 | 51.57160 | -1.15332 | 15057 ft | 337 kts | 149° |
| 2026-05-07 19:30 | 51.55215 | -1.13317 | 15054 ft | 337 kts | 149° |
| 2026-05-07 19:31 | 51.53237 | -1.11272 | 15058 ft | 337 kts | 149° |
| 2026-05-07 19:31 | 51.51271 | -1.09243 | 15058 ft | 337 kts | 149° |
| 2026-05-07 19:31 | 51.49296 | -1.07206 | 15059 ft | 337 kts | 149° |
| 2026-05-07 19:31 | 51.47325 | -1.05175 | 15054 ft | 337 kts | 149° |
| 2026-05-07 19:32 | 51.45356 | -1.03147 | 15052 ft | 337 kts | 149° |
| 2026-05-07 19:32 | 51.43386 | -1.01120 | 15052 ft | 337 kts | 149° |
| 2026-05-07 19:32 | 51.41406 | -0.99082 | 15054 ft | 337 kts | 149° |
| 2026-05-07 19:32 | 51.39443 | -0.97065 | 15053 ft | 336 kts | 149° |
| 2026-05-07 19:33 | 51.37511 | -0.95078 | 15035 ft | 323 kts | 149° |
| 2026-05-07 19:33 | 51.35626 | -0.93141 | 15048 ft | 321 kts | 149° |
| 2026-05-07 19:33 | 51.33748 | -0.91215 | 15045 ft | 319 kts | 149° |
| 2026-05-07 19:33 | 51.31874 | -0.89297 | 15043 ft | 320 kts | 149° |
| 2026-05-07 19:34 | 51.30003 | -0.87385 | 15045 ft | 319 kts | 149° |
| 2026-05-07 19:34 | 51.28127 | -0.85469 | 15040 ft | 319 kts | 149° |
| 2026-05-07 19:34 | 51.26257 | -0.83559 | 15042 ft | 320 kts | 149° |
| 2026-05-07 19:34 | 51.24404 | -0.81668 | 15040 ft | 319 kts | 149° |
| 2026-05-07 19:35 | 51.22533 | -0.79759 | 15041 ft | 319 kts | 149° |
| 2026-05-07 19:35 | 51.20660 | -0.77850 | 15041 ft | 320 kts | 149° |
| 2026-05-07 19:35 | 51.18785 | -0.75940 | 15040 ft | 319 kts | 149° |
| 2026-05-07 19:35 | 51.16912 | -0.74034 | 15040 ft | 319 kts | 149° |
| 2026-05-07 19:36 | 51.15039 | -0.72129 | 15046 ft | 319 kts | 149° |
| 2026-05-07 19:36 | 51.13171 | -0.70231 | 15046 ft | 320 kts | 149° |
| 2026-05-07 19:36 | 51.11298 | -0.68331 | 15046 ft | 319 kts | 149° |
| 2026-05-07 19:36 | 51.09433 | -0.66439 | 14809 ft | 319 kts | 149° |
| 2026-05-07 19:37 | 51.07539 | -0.64521 | 14145 ft | 327 kts | 149° |
| 2026-05-07 19:37 | 51.05979 | -0.62949 | 13655 ft | 330 kts | 149° |
| 2026-05-07 19:37 | 51.04163 | -0.61123 | 13093 ft | 332 kts | 149° |
| 2026-05-07 19:37 | 51.02210 | -0.59159 | 12577 ft | 332 kts | 149° |
| 2026-05-07 19:38 | 51.00267 | -0.57206 | 12078 ft | 331 kts | 149° |
| 2026-05-07 19:38 | 50.98328 | -0.55255 | 11591 ft | 330 kts | 149° |
| 2026-05-07 19:38 | 50.96386 | -0.53302 | 11141 ft | 329 kts | 149° |
| 2026-05-07 19:38 | 50.94653 | -0.50942 | 10686 ft | 331 kts | 128° |
| 2026-05-07 19:39 | 50.93578 | -0.47705 | 10264 ft | 333 kts | 110° |
| 2026-05-07 19:39 | 50.92947 | -0.44219 | 9848 ft | 333 kts | 104° |
| 2026-05-07 19:39 | 50.92447 | -0.40635 | 9413 ft | 332 kts | 102° |
| 2026-05-07 19:39 | 50.91980 | -0.37007 | 8937 ft | 343 kts | 102° |
| 2026-05-07 19:40 | 50.91620 | -0.33212 | 8443 ft | 354 kts | 92° |
| 2026-05-07 19:40 | 50.91783 | -0.29329 | 8200 ft | 350 kts | 79° |
| 2026-05-07 19:40 | 50.92465 | -0.25715 | 8119 ft | 337 kts | 66° |
| 2026-05-07 19:40 | 50.93609 | -0.22522 | 7926 ft | 330 kts | 52° |
| 2026-05-07 19:41 | 50.95160 | -0.19881 | 7717 ft | 324 kts | 39° |
| 2026-05-07 19:41 | 50.96989 | -0.17969 | 7523 ft | 306 kts | 25° |
| 2026-05-07 19:41 | 50.98938 | -0.16896 | 7343 ft | 288 kts | 10° |
| 2026-05-07 19:41 | 51.00866 | -0.16965 | 7158 ft | 271 kts | 343° |
| 2026-05-07 19:42 | 51.02409 | -0.18344 | 7063 ft | 247 kts | 314° |
| 2026-05-07 19:42 | 51.03228 | -0.20537 | 7057 ft | 213 kts | 287° |
| 2026-05-07 19:42 | 51.03567 | -0.22689 | 7065 ft | 200 kts | 282° |
| 2026-05-07 19:42 | 51.03845 | -0.24874 | 7004 ft | 204 kts | 281° |
| 2026-05-07 19:43 | 51.04117 | -0.27105 | 6884 ft | 209 kts | 281° |
| 2026-05-07 19:43 | 51.04396 | -0.29410 | 6247 ft | 216 kts | 281° |
| 2026-05-07 19:43 | 51.04546 | -0.31813 | 5574 ft | 220 kts | 272° |
| 2026-05-07 19:43 | 51.04586 | -0.34253 | 4948 ft | 221 kts | 271° |
| 2026-05-07 19:44 | 51.04614 | -0.36703 | 4305 ft | 222 kts | 271° |
| 2026-05-07 19:44 | 51.04641 | -0.39154 | 3682 ft | 221 kts | 271° |
| 2026-05-07 19:44 | 51.04671 | -0.41574 | 3161 ft | 216 kts | 271° |
| 2026-05-07 19:44 | 51.04702 | -0.43887 | 2984 ft | 201 kts | 271° |
| 2026-05-07 19:45 | 51.04733 | -0.46076 | 2980 ft | 196 kts | 270° |
| 2026-05-07 19:45 | 51.04766 | -0.48240 | 2971 ft | 195 kts | 271° |
| 2026-05-07 19:45 | 51.04799 | -0.50390 | 2970 ft | 194 kts | 272° |
| 2026-05-07 19:45 | 51.05248 | -0.52330 | 2965 ft | 192 kts | 312° |
| 2026-05-07 19:46 | 51.06378 | -0.53417 | 2976 ft | 190 kts | 351° |
| 2026-05-07 19:46 | 51.07647 | -0.53150 | 2979 ft | 185 kts | 30° |
| 2026-05-07 19:46 | 51.08605 | -0.51817 | 2998 ft | 183 kts | 49° |
| 2026-05-07 19:46 | 51.09458 | -0.50302 | 2989 ft | 183 kts | 51° |
| 2026-05-07 19:47 | 51.10192 | -0.48665 | 2991 ft | 181 kts | 61° |
| 2026-05-07 19:47 | 51.10818 | -0.46931 | 2991 ft | 181 kts | 69° |
| 2026-05-07 19:47 | 51.11160 | -0.45015 | 2984 ft | 181 kts | 75° |
| 2026-05-07 19:47 | 51.11446 | -0.43072 | 2991 ft | 181 kts | 78° |
| 2026-05-07 19:48 | 51.11720 | -0.41111 | 2864 ft | 182 kts | 78° |
| 2026-05-07 19:48 | 51.11989 | -0.39183 | 2633 ft | 180 kts | 78° |
| 2026-05-07 19:48 | 51.12268 | -0.37242 | 2394 ft | 180 kts | 78° |
| 2026-05-07 19:48 | 51.12539 | -0.35306 | 2146 ft | 180 kts | 79° |
| 2026-05-07 19:49 | 51.12811 | -0.33355 | 1900 ft | 178 kts | 79° |
| 2026-05-07 19:49 | 51.13078 | -0.31436 | 1672 ft | 178 kts | 79° |
| 2026-05-07 19:49 | 51.13344 | -0.29530 | 1422 ft | 175 kts | 79° |
| 2026-05-07 19:49 | 51.13610 | -0.27617 | 1189 ft | 176 kts | 78° |
| 2026-05-07 19:50 | 51.13863 | -0.25807 | 944 ft | 174 kts | 78° |
| 2026-05-07 19:50 | 51.14128 | -0.23933 | 691 ft | 173 kts | 78° |
| 2026-05-07 19:50 | 51.14388 | -0.22070 | 427 ft | 171 kts | 78° |
| 2026-05-07 19:50 | 51.14646 | -0.20234 | 240 ft | 171 kts | 78° |
| 2026-05-07 19:51 | 51.14891 | -0.18489 | 219 ft | 140 kts | 77° |
| 2026-05-07 19:51 | 51.15038 | -0.17442 | 225 ft | 56 kts | 72° |
| 2026-05-07 19:51 | 51.15112 | -0.17232 | 221 ft | 0 kts | 40° |
| 2026-05-07 19:51 | 51.15119 | -0.17225 | 223 ft | 4 kts | 30° |
| 2026-05-07 19:52 | 51.15156 | -0.17215 | 218 ft | 2 kts | 348° |
| 2026-05-07 19:52 | 51.15176 | -0.17234 | 220 ft | 6 kts | 324° |
| 2026-05-07 19:52 | 51.15236 | -0.17302 | 220 ft | 17 kts | 325° |
| 2026-05-07 19:52 | 51.15343 | -0.17371 | 220 ft | 15 kts | 344° |
| 2026-05-07 19:53 | 51.15421 | -0.17398 | 219 ft | 11 kts | 348° |
| 2026-05-07 19:53 | 51.15495 | -0.17422 | 217 ft | 12 kts | 348° |
| 2026-05-07 19:53 | 51.15583 | -0.17454 | 222 ft | 14 kts | 346° |
| 2026-05-07 19:53 | 51.15683 | -0.17489 | 220 ft | 15 kts | 348° |
| 2026-05-07 19:54 | 51.15748 | -0.17545 | 224 ft | 7 kts | 296° |
| 2026-05-07 19:54 | 51.15748 | -0.17620 | 223 ft | 7 kts | 256° |
| 2026-05-07 19:54 | 51.15732 | -0.17721 | 217 ft | 12 kts | 256° |
| 2026-05-07 19:54 | 51.15710 | -0.17871 | 215 ft | 15 kts | 257° |
| 2026-05-07 19:55 | 51.15700 | -0.18004 | 216 ft | 8 kts | 288° |
| 2026-05-07 19:55 | 51.15741 | -0.18054 | 219 ft | 8 kts | 350° |
| 2026-05-07 19:55 | 51.15805 | -0.18071 | 222 ft | 11 kts | 350° |
| 2026-05-07 19:55 | 51.15844 | -0.18082 | 215 ft | 1 kts | 350° |
| 2026-05-07 19:56 | 51.15855 | -0.18085 | 217 ft | 2 kts | 348° |
| 2026-05-07 19:56 | 51.15874 | -0.18089 | 219 ft | 4 kts | 356° |
| 2026-05-07 19:56 | 51.15903 | -0.18071 | 222 ft | 5 kts | 38° |
| 2026-05-07 19:56 | 51.15917 | -0.18013 | 221 ft | 8 kts | 77° |
| 2026-05-07 19:57 | 51.15925 | -0.17957 | 216 ft | 0 kts | 78° |